sensor_id;sensor_type;location;lat;lon;timestamp;pressure;altitude;pressure_sealevel;temperature;humidity
62103;BME280;48077;48.104;11.702;2022-09-01T00:01:17;95753.16;;;13.56;100.00
62103;BME280;48077;48.104;11.702;2022-09-01T00:03:43;95752.59;;;13.54;100.00
62103;BME280;48077;48.104;11.702;2022-09-01T00:06:10;95757.16;;;13.53;100.00
62103;BME280;48077;48.104;11.702;2022-09-01T00:08:34;95753.09;;;13.51;100.00
62103;BME280;48077;48.104;11.702;2022-09-01T00:10:57;95761.94;;;13.51;100.00
62103;BME280;48077;48.104;11.702;2022-09-01T00:13:20;95760.91;;;13.52;100.00
62103;BME280;48077;48.104;11.702;2022-09-01T00:15:44;95766.25;;;13.52;100.00
62103;BME280;48077;48.104;11.702;2022-09-01T00:18:07;95763.03;;;13.50;100.00
62103;BME280;48077;48.104;11.702;2022-09-01T00:20:31;95764.63;;;13.51;100.00
62103;BME280;48077;48.104;11.702;2022-09-01T00:22:54;95765.69;;;13.50;100.00
62103;BME280;48077;48.104;11.702;2022-09-01T00:25:18;95755.16;;;13.44;100.00
62103;BME280;48077;48.104;11.702;2022-09-01T00:27:42;95747.25;;;13.37;100.00
62103;BME280;48077;48.104;11.702;2022-09-01T00:30:06;95766.75;;;13.49;100.00
62103;BME280;48077;48.104;11.702;2022-09-01T00:32:30;95772.66;;;13.51;100.00
62103;BME280;48077;48.104;11.702;2022-09-01T00:34:53;95758.69;;;13.49;100.00
62103;BME280;48077;48.104;11.702;2022-09-01T00:37:17;95761.94;;;13.51;100.00
62103;BME280;48077;48.104;11.702;2022-09-01T00:39:40;95753.09;;;13.51;100.00
62103;BME280;48077;48.104;11.702;2022-09-01T00:42:04;95752.88;;;13.52;100.00
62103;BME280;48077;48.104;11.702;2022-09-01T00:44:27;95751.00;;;13.53;100.00
62103;BME280;48077;48.104;11.702;2022-09-01T00:46:52;95745.31;;;13.49;100.00
62103;BME280;48077;48.104;11.702;2022-09-01T00:49:21;95752.22;;;13.45;100.00
62103;BME280;48077;48.104;11.702;2022-09-01T00:51:46;95748.97;;;13.43;100.00
62103;BME280;48077;48.104;11.702;2022-09-01T00:54:14;95744.09;;;13.40;100.00
62103;BME280;48077;48.104;11.702;2022-09-01T00:56:40;95736.25;;;13.33;100.00
62103;BME280;48077;48.104;11.702;2022-09-01T00:59:06;95740.75;;;13.33;100.00
62103;BME280;48077;48.104;11.702;2022-09-01T01:01:30;95745.06;;;13.34;100.00
62103;BME280;48077;48.104;11.702;2022-09-01T01:03:55;95746.13;;;13.33;100.00
62103;BME280;48077;48.104;11.702;2022-09-01T01:06:19;95746.25;;;13.26;100.00
62103;BME280;48077;48.104;11.702;2022-09-01T01:08:49;95753.59;;;13.31;100.00
62103;BME280;48077;48.104;11.702;2022-09-01T01:11:24;95757.91;;;13.32;100.00
62103;BME280;48077;48.104;11.702;2022-09-01T01:14:07;95751.81;;;13.36;100.00
62103;BME280;48077;48.104;11.702;2022-09-01T01:16:40;95759.03;;;13.36;100.00
62103;BME280;48077;48.104;11.702;2022-09-01T01:19:07;95747.53;;;13.35;100.00
62103;BME280;48077;48.104;11.702;2022-09-01T01:21:52;95752.03;;;13.35;100.00
62103;BME280;48077;48.104;11.702;2022-09-01T01:24:34;95744.97;;;13.29;100.00
62103;BME280;48077;48.104;11.702;2022-09-01T01:26:58;95748.78;;;13.33;100.00
62103;BME280;48077;48.104;11.702;2022-09-01T01:29:22;95736.94;;;13.29;100.00
62103;BME280;48077;48.104;11.702;2022-09-01T01:31:47;95744.56;;;13.37;100.00
62103;BME280;48077;48.104;11.702;2022-09-01T01:34:11;95745.53;;;13.31;100.00
62103;BME280;48077;48.104;11.702;2022-09-01T01:36:37;95747.41;;;13.30;100.00
62103;BME280;48077;48.104;11.702;2022-09-01T01:39:11;95728.00;;;13.23;100.00
62103;BME280;48077;48.104;11.702;2022-09-01T01:41:36;95741.97;;;13.25;100.00
62103;BME280;48077;48.104;11.702;2022-09-01T01:44:03;95729.78;;;13.18;100.00
62103;BME280;48077;48.104;11.702;2022-09-01T01:46:27;95736.75;;;13.19;100.00
62103;BME280;48077;48.104;11.702;2022-09-01T01:48:51;95738.84;;;13.16;100.00
62103;BME280;48077;48.104;11.702;2022-09-01T01:51:17;95728.72;;;13.19;100.00
62103;BME280;48077;48.104;11.702;2022-09-01T01:53:43;95727.91;;;13.18;100.00
62103;BME280;48077;48.104;11.702;2022-09-01T01:56:07;95735.13;;;13.18;100.00
62103;BME280;48077;48.104;11.702;2022-09-01T01:58:33;95733.50;;;13.16;100.00
62103;BME280;48077;48.104;11.702;2022-09-01T02:00:57;95720.84;;;13.12;100.00
62103;BME280;48077;48.104;11.702;2022-09-01T02:03:23;95728.13;;;13.16;100.00
62103;BME280;48077;48.104;11.702;2022-09-01T02:05:49;95723.63;;;13.17;100.00
62103;BME280;48077;48.104;11.702;2022-09-01T02:08:13;95726.31;;;13.17;100.00
62103;BME280;48077;48.104;11.702;2022-09-01T02:10:41;95726.13;;;13.07;100.00
62103;BME280;48077;48.104;11.702;2022-09-01T02:13:05;95726.69;;;13.09;100.00
62103;BME280;48077;48.104;11.702;2022-09-01T02:15:30;95727.50;;;13.09;100.00
62103;BME280;48077;48.104;11.702;2022-09-01T02:18:05;95730.41;;;13.08;100.00
62103;BME280;48077;48.104;11.702;2022-09-01T02:20:29;95734.97;;;13.07;100.00
62103;BME280;48077;48.104;11.702;2022-09-01T02:22:55;95733.34;;;13.06;100.00
62103;BME280;48077;48.104;11.702;2022-09-01T02:25:18;95728.47;;;13.03;100.00
62103;BME280;48077;48.104;11.702;2022-09-01T02:27:42;95724.19;;;13.02;100.00
62103;BME280;48077;48.104;11.702;2022-09-01T02:30:06;95727.31;;;12.99;100.00
62103;BME280;48077;48.104;11.702;2022-09-01T02:32:33;95730.56;;;13.01;100.00
62103;BME280;48077;48.104;11.702;2022-09-01T02:34:56;95730.81;;;13.00;100.00
62103;BME280;48077;48.104;11.702;2022-09-01T02:37:23;95725.16;;;12.96;100.00
62103;BME280;48077;48.104;11.702;2022-09-01T02:39:47;95731.69;;;12.88;100.00
62103;BME280;48077;48.104;11.702;2022-09-01T02:42:10;95726.25;;;12.83;100.00
62103;BME280;48077;48.104;11.702;2022-09-01T02:44:37;95732.31;;;12.79;100.00
62103;BME280;48077;48.104;11.702;2022-09-01T02:47:02;95729.06;;;12.76;100.00
62103;BME280;48077;48.104;11.702;2022-09-01T02:49:31;95731.19;;;12.74;100.00
62103;BME280;48077;48.104;11.702;2022-09-01T02:51:56;95725.97;;;12.68;100.00
62103;BME280;48077;48.104;11.702;2022-09-01T02:54:21;95727.84;;;12.67;100.00
62103;BME280;48077;48.104;11.702;2022-09-01T02:56:46;95726.94;;;12.62;100.00
62103;BME280;48077;48.104;11.702;2022-09-01T02:59:10;95726.47;;;12.65;100.00
62103;BME280;48077;48.104;11.702;2022-09-01T03:01:35;95723.81;;;12.65;100.00
62103;BME280;48077;48.104;11.702;2022-09-01T03:04:01;95732.28;;;12.62;100.00
62103;BME280;48077;48.104;11.702;2022-09-01T03:06:24;95728.97;;;12.54;100.00
62103;BME280;48077;48.104;11.702;2022-09-01T03:08:50;95728.84;;;12.49;100.00
62103;BME280;48077;48.104;11.702;2022-09-01T03:11:14;95724.22;;;12.45;100.00
62103;BME280;48077;48.104;11.702;2022-09-01T03:13:39;95718.28;;;12.43;100.00
62103;BME280;48077;48.104;11.702;2022-09-01T03:16:04;95721.69;;;12.38;100.00
62103;BME280;48077;48.104;11.702;2022-09-01T03:18:28;95715.41;;;12.32;100.00
62103;BME280;48077;48.104;11.702;2022-09-01T03:20:51;95702.56;;;12.18;100.00
62103;BME280;48077;48.104;11.702;2022-09-01T03:23:16;95712.09;;;12.25;100.00
62103;BME280;48077;48.104;11.702;2022-09-01T03:25:42;95719.53;;;12.23;100.00
62103;BME280;48077;48.104;11.702;2022-09-01T03:28:06;95718.97;;;12.21;100.00
62103;BME280;48077;48.104;11.702;2022-09-01T03:30:32;95718.97;;;12.21;100.00
62103;BME280;48077;48.104;11.702;2022-09-01T03:32:57;95712.09;;;12.25;100.00
62103;BME280;48077;48.104;11.702;2022-09-01T03:35:20;95702.91;;;12.21;100.00
62103;BME280;48077;48.104;11.702;2022-09-01T03:37:44;95710.00;;;12.27;100.00
62103;BME280;48077;48.104;11.702;2022-09-01T03:40:08;95713.94;;;12.25;100.00
62103;BME280;48077;48.104;11.702;2022-09-01T03:42:31;95717.91;;;12.22;100.00
62103;BME280;48077;48.104;11.702;2022-09-01T03:44:55;95709.78;;;12.17;100.00
62103;BME280;48077;48.104;11.702;2022-09-01T03:47:18;95714.06;;;12.18;100.00
62103;BME280;48077;48.104;11.702;2022-09-01T03:49:43;95713.03;;;12.19;100.00
62103;BME280;48077;48.104;11.702;2022-09-01T03:52:08;95704.44;;;12.17;100.00
62103;BME280;48077;48.104;11.702;2022-09-01T03:54:32;95701.19;;;12.15;100.00
62103;BME280;48077;48.104;11.702;2022-09-01T03:56:55;95703.88;;;12.15;100.00
62103;BME280;48077;48.104;11.702;2022-09-01T03:59:21;95699.81;;;12.12;100.00
62103;BME280;48077;48.104;11.702;2022-09-01T04:01:47;95694.91;;;12.09;100.00
62103;BME280;48077;48.104;11.702;2022-09-01T04:04:11;95694.00;;;12.04;100.00
62103;BME280;48077;48.104;11.702;2022-09-01T04:06:37;95687.75;;;11.98;100.00
62103;BME280;48077;48.104;11.702;2022-09-01T04:09:00;95695.19;;;11.96;100.00
62103;BME280;48077;48.104;11.702;2022-09-01T04:11:27;95693.78;;;11.93;100.00
62103;BME280;48077;48.104;11.702;2022-09-01T04:13:52;95700.53;;;11.96;100.00
62103;BME280;48077;48.104;11.702;2022-09-01T04:16:24;95699.63;;;11.90;100.00
62103;BME280;48077;48.104;11.702;2022-09-01T04:19:06;95697.84;;;11.84;100.00
62103;BME280;48077;48.104;11.702;2022-09-01T04:21:42;95705.53;;;11.81;100.00
62103;BME280;48077;48.104;11.702;2022-09-01T04:24:06;95695.78;;;11.74;100.00
62103;BME280;48077;48.104;11.702;2022-09-01T04:26:31;95686.03;;;11.68;100.00
62103;BME280;48077;48.104;11.702;2022-09-01T04:28:55;95703.47;;;11.71;100.00
62103;BME280;48077;48.104;11.702;2022-09-01T04:31:20;95693.22;;;11.68;100.00
62103;BME280;48077;48.104;11.702;2022-09-01T04:33:46;95697.19;;;11.65;100.00
62103;BME280;48077;48.104;11.702;2022-09-01T04:36:29;95693.22;;;11.68;100.00
62103;BME280;48077;48.104;11.702;2022-09-01T04:38:58;95704.72;;;11.68;100.00
62103;BME280;48077;48.104;11.702;2022-09-01T04:41:28;95695.56;;;11.64;100.00
62103;BME280;48077;48.104;11.702;2022-09-01T04:43:54;95703.91;;;11.68;100.00
62103;BME280;48077;48.104;11.702;2022-09-01T04:46:19;95689.97;;;11.66;100.00
62103;BME280;48077;48.104;11.702;2022-09-01T04:48:43;95695.78;;;11.74;100.00
62103;BME280;48077;48.104;11.702;2022-09-01T04:51:08;95702.53;;;11.77;100.00
62103;BME280;48077;48.104;11.702;2022-09-01T04:53:32;95701.00;;;11.81;100.00
62103;BME280;48077;48.104;11.702;2022-09-01T04:55:55;95706.69;;;11.85;100.00
62103;BME280;48077;48.104;11.702;2022-09-01T04:58:26;95702.97;;;11.86;100.00
62103;BME280;48077;48.104;11.702;2022-09-01T05:00:51;95706.00;;;11.89;100.00
62103;BME280;48077;48.104;11.702;2022-09-01T05:03:14;95704.97;;;11.90;100.00
62103;BME280;48077;48.104;11.702;2022-09-01T05:05:41;95706.91;;;11.95;100.00
62103;BME280;48077;48.104;11.702;2022-09-01T05:08:05;95706.22;;;12.00;100.00
62103;BME280;48077;48.104;11.702;2022-09-01T05:10:30;95704.69;;;12.04;100.00
62103;BME280;48077;48.104;11.702;2022-09-01T05:12:53;95699.91;;;12.06;100.00
62103;BME280;48077;48.104;11.702;2022-09-01T05:15:17;95703.75;;;12.10;100.00
62103;BME280;48077;48.104;11.702;2022-09-01T05:17:40;95697.44;;;12.16;100.00
62103;BME280;48077;48.104;11.702;2022-09-01T05:20:04;95704.06;;;12.25;100.00
62103;BME280;48077;48.104;11.702;2022-09-01T05:22:28;95711.72;;;12.33;100.00
62103;BME280;48077;48.104;11.702;2022-09-01T05:24:53;95714.13;;;12.35;100.00
62103;BME280;48077;48.104;11.702;2022-09-01T05:27:16;95711.78;;;12.39;100.00
62103;BME280;48077;48.104;11.702;2022-09-01T05:29:41;95720.97;;;12.43;100.00
62103;BME280;48077;48.104;11.702;2022-09-01T05:32:05;95714.59;;;12.44;100.00
62103;BME280;48077;48.104;11.702;2022-09-01T05:34:32;95724.78;;;12.47;100.00
62103;BME280;48077;48.104;11.702;2022-09-01T05:36:58;95717.00;;;12.45;100.00
62103;BME280;48077;48.104;11.702;2022-09-01T05:39:23;95719.34;;;12.42;100.00
62103;BME280;48077;48.104;11.702;2022-09-01T05:41:47;95716.44;;;12.43;100.00
62103;BME280;48077;48.104;11.702;2022-09-01T05:44:11;95713.28;;;12.46;100.00
62103;BME280;48077;48.104;11.702;2022-09-01T05:46:37;95713.59;;;12.50;100.00
62103;BME280;48077;48.104;11.702;2022-09-01T05:49:02;95717.69;;;12.52;100.00
62103;BME280;48077;48.104;11.702;2022-09-01T05:51:27;95716.84;;;12.52;100.00
62103;BME280;48077;48.104;11.702;2022-09-01T05:53:55;95700.00;;;12.51;100.00
62103;BME280;48077;48.104;11.702;2022-09-01T05:56:21;95708.69;;;12.59;100.00
62103;BME280;48077;48.104;11.702;2022-09-01T05:58:46;95708.53;;;12.65;100.00
62103;BME280;48077;48.104;11.702;2022-09-01T06:01:15;95709.59;;;12.64;100.00
62103;BME280;48077;48.104;11.702;2022-09-01T06:03:39;95707.94;;;12.75;100.00
62103;BME280;48077;48.104;11.702;2022-09-01T06:06:04;95713.28;;;12.75;100.00
62103;BME280;48077;48.104;11.702;2022-09-01T06:08:30;95708.81;;;12.81;100.00
62103;BME280;48077;48.104;11.702;2022-09-01T06:10:54;95713.94;;;12.82;100.00
62103;BME280;48077;48.104;11.702;2022-09-01T06:13:18;95714.72;;;12.83;100.00
62103;BME280;48077;48.104;11.702;2022-09-01T06:15:43;95712.16;;;12.88;100.00
62103;BME280;48077;48.104;11.702;2022-09-01T06:18:09;95714.91;;;12.93;100.00
62103;BME280;48077;48.104;11.702;2022-09-01T06:20:37;95719.34;;;12.87;100.00
62103;BME280;48077;48.104;11.702;2022-09-01T06:23:02;95710.53;;;12.87;100.00
62103;BME280;48077;48.104;11.702;2022-09-01T06:25:25;95724.47;;;12.89;100.00
62103;BME280;48077;48.104;11.702;2022-09-01T06:27:52;95721.34;;;12.92;100.00
62103;BME280;48077;48.104;11.702;2022-09-01T06:30:16;95724.66;;;12.99;100.00
62103;BME280;48077;48.104;11.702;2022-09-01T06:32:43;95722.38;;;13.08;100.00
62103;BME280;48077;48.104;11.702;2022-09-01T06:35:07;95723.53;;;13.12;100.00
62103;BME280;48077;48.104;11.702;2022-09-01T06:37:31;95719.63;;;13.20;100.00
62103;BME280;48077;48.104;11.702;2022-09-01T06:39:54;95722.16;;;13.26;100.00
62103;BME280;48077;48.104;11.702;2022-09-01T06:42:19;95722.56;;;13.35;100.00
62103;BME280;48077;48.104;11.702;2022-09-01T06:44:45;95722.09;;;13.38;100.00
62103;BME280;48077;48.104;11.702;2022-09-01T06:47:08;95728.03;;;13.40;100.00
62103;BME280;48077;48.104;11.702;2022-09-01T06:49:32;95727.78;;;13.42;100.00
62103;BME280;48077;48.104;11.702;2022-09-01T06:51:56;95728.84;;;13.41;100.00
62103;BME280;48077;48.104;11.702;2022-09-01T06:54:20;95727.69;;;13.36;100.00
62103;BME280;48077;48.104;11.702;2022-09-01T06:56:44;95714.34;;;13.25;100.00
62103;BME280;48077;48.104;11.702;2022-09-01T06:59:08;95730.94;;;13.39;100.00
62103;BME280;48077;48.104;11.702;2022-09-01T07:01:32;95731.34;;;13.47;100.00
62103;BME280;48077;48.104;11.702;2022-09-01T07:03:56;95740.28;;;13.53;100.00
62103;BME280;48077;48.104;11.702;2022-09-01T07:06:21;95739.06;;;13.61;100.00
62103;BME280;48077;48.104;11.702;2022-09-01T07:08:49;95739.13;;;13.66;100.00
62103;BME280;48077;48.104;11.702;2022-09-01T07:11:18;95749.66;;;13.72;100.00
62103;BME280;48077;48.104;11.702;2022-09-01T07:13:46;95755.59;;;13.74;100.00
62103;BME280;48077;48.104;11.702;2022-09-01T07:16:15;95753.25;;;13.78;100.00
62103;BME280;48077;48.104;11.702;2022-09-01T07:18:43;95758.53;;;13.73;99.81
62103;BME280;48077;48.104;11.702;2022-09-01T07:21:06;95751.53;;;13.72;99.56
62103;BME280;48077;48.104;11.702;2022-09-01T07:23:30;95752.66;;;13.76;100.00
62103;BME280;48077;48.104;11.702;2022-09-01T07:25:53;95757.38;;;13.86;99.96
62103;BME280;48077;48.104;11.702;2022-09-01T07:28:21;95740.16;;;13.82;99.57
62103;BME280;48077;48.104;11.702;2022-09-01T07:30:47;95755.88;;;13.95;99.26
62103;BME280;48077;48.104;11.702;2022-09-01T07:33:11;95761.34;;;14.00;98.66
62103;BME280;48077;48.104;11.702;2022-09-01T07:35:37;95756.34;;;14.09;98.49
62103;BME280;48077;48.104;11.702;2022-09-01T07:38:00;95759.53;;;14.28;97.64
62103;BME280;48077;48.104;11.702;2022-09-01T07:40:23;95760.97;;;14.35;97.11
62103;BME280;48077;48.104;11.702;2022-09-01T07:42:54;95760.47;;;14.38;96.63
62103;BME280;48077;48.104;11.702;2022-09-01T07:45:19;95766.16;;;14.42;94.21
62103;BME280;48077;48.104;11.702;2022-09-01T07:47:42;95764.84;;;14.45;91.34
62103;BME280;48077;48.104;11.702;2022-09-01T07:50:08;95758.31;;;14.35;92.81
62103;BME280;48077;48.104;11.702;2022-09-01T07:52:37;95758.31;;;14.35;94.03
62103;BME280;48077;48.104;11.702;2022-09-01T07:55:04;95758.53;;;14.34;94.22
62103;BME280;48077;48.104;11.702;2022-09-01T07:57:28;95764.78;;;14.40;93.43
62103;BME280;48077;48.104;11.702;2022-09-01T07:59:51;95770.53;;;14.48;92.11
62103;BME280;48077;48.104;11.702;2022-09-01T08:02:17;95768.47;;;14.55;91.28
62103;BME280;48077;48.104;11.702;2022-09-01T08:04:41;95768.56;;;14.61;90.74
62103;BME280;48077;48.104;11.702;2022-09-01T08:07:04;95766.22;;;14.69;92.08
62103;BME280;48077;48.104;11.702;2022-09-01T08:09:27;95751.84;;;14.81;91.27
62103;BME280;48077;48.104;11.702;2022-09-01T08:11:51;95766.09;;;15.08;89.46
62103;BME280;48077;48.104;11.702;2022-09-01T08:14:14;95772.66;;;15.23;90.37
62103;BME280;48077;48.104;11.702;2022-09-01T08:16:39;95776.81;;;15.35;89.90
62103;BME280;48077;48.104;11.702;2022-09-01T08:19:02;95779.28;;;15.42;87.45
62103;BME280;48077;48.104;11.702;2022-09-01T08:21:25;95789.00;;;15.48;83.62
62103;BME280;48077;48.104;11.702;2022-09-01T08:23:50;95775.88;;;15.25;86.25
62103;BME280;48077;48.104;11.702;2022-09-01T08:26:16;95792.09;;;15.35;86.50
62103;BME280;48077;48.104;11.702;2022-09-01T08:28:39;95790.03;;;15.42;83.73
62103;BME280;48077;48.104;11.702;2022-09-01T08:31:12;95796.78;;;15.50;85.25
62103;BME280;48077;48.104;11.702;2022-09-01T08:33:37;95795.66;;;15.41;84.96
62103;BME280;48077;48.104;11.702;2022-09-01T08:36:00;95799.28;;;15.56;83.87
62103;BME280;48077;48.104;11.702;2022-09-01T08:38:24;95797.75;;;15.66;82.03
62103;BME280;48077;48.104;11.702;2022-09-01T08:40:54;95794.88;;;15.45;83.79
62103;BME280;48077;48.104;11.702;2022-09-01T08:43:45;95794.31;;;15.43;84.23
62103;BME280;48077;48.104;11.702;2022-09-01T08:48:40;95797.34;;;15.52;85.00
62103;BME280;48077;48.104;11.702;2022-09-01T08:51:14;95806.84;;;15.59;85.20
62103;BME280;48077;48.104;11.702;2022-09-01T08:53:45;95800.72;;;15.69;85.32
62103;BME280;48077;48.104;11.702;2022-09-01T08:56:10;95801.66;;;15.80;84.23
62103;BME280;48077;48.104;11.702;2022-09-01T08:58:34;95804.91;;;15.87;84.23
62103;BME280;48077;48.104;11.702;2022-09-01T09:01:01;95804.19;;;15.97;83.31
62103;BME280;48077;48.104;11.702;2022-09-01T09:03:47;95795.16;;;16.18;78.95
62103;BME280;48077;48.104;11.702;2022-09-01T09:06:22;95791.09;;;16.16;79.57
62103;BME280;48077;48.104;11.702;2022-09-01T09:09:01;95798.13;;;16.22;81.18
62103;BME280;48077;48.104;11.702;2022-09-01T09:16:53;95788.59;;;16.47;79.41
62103;BME280;48077;48.104;11.702;2022-09-01T09:19:46;95790.28;;;16.68;77.56
62103;BME280;48077;48.104;11.702;2022-09-01T09:22:13;95790.25;;;16.63;76.14
62103;BME280;48077;48.104;11.702;2022-09-01T09:24:50;95787.03;;;16.66;76.59
62103;BME280;48077;48.104;11.702;2022-09-01T09:27:23;95780.94;;;16.86;75.48
62103;BME280;48077;48.104;11.702;2022-09-01T09:29:56;95786.91;;;17.04;73.55
62103;BME280;48077;48.104;11.702;2022-09-01T09:32:21;95783.16;;;17.05;72.70
62103;BME280;48077;48.104;11.702;2022-09-01T09:34:45;95781.78;;;17.07;72.64
62103;BME280;48077;48.104;11.702;2022-09-01T09:37:35;95782.34;;;17.25;74.57
62103;BME280;48077;48.104;11.702;2022-09-01T09:40:03;95784.00;;;17.46;72.95
62103;BME280;48077;48.104;11.702;2022-09-01T09:42:29;95783.72;;;17.58;72.04
62103;BME280;48077;48.104;11.702;2022-09-01T09:44:53;95789.38;;;17.77;70.03
62103;BME280;48077;48.104;11.702;2022-09-01T09:47:39;95775.13;;;17.92;69.10
62103;BME280;48077;48.104;11.702;2022-09-01T09:50:13;95766.47;;;17.79;68.24
62103;BME280;48077;48.104;11.702;2022-09-01T09:52:39;95781.31;;;17.92;69.41
62103;BME280;48077;48.104;11.702;2022-09-01T09:55:17;95772.13;;;18.09;65.25
62103;BME280;48077;48.104;11.702;2022-09-01T09:57:41;95776.97;;;18.07;67.82
62103;BME280;48077;48.104;11.702;2022-09-01T10:00:14;95769.94;;;18.21;68.45
62103;BME280;48077;48.104;11.702;2022-09-01T10:02:45;95767.13;;;18.41;68.83
62103;BME280;48077;48.104;11.702;2022-09-01T10:07:49;95769.75;;;18.67;63.12
62103;BME280;48077;48.104;11.702;2022-09-01T10:10:35;95765.97;;;18.68;63.89
62103;BME280;48077;48.104;11.702;2022-09-01T10:13:05;95761.88;;;18.71;61.98
62103;BME280;48077;48.104;11.702;2022-09-01T10:15:32;95760.34;;;18.59;63.74
62103;BME280;48077;48.104;11.702;2022-09-01T10:18:01;95762.72;;;18.71;61.04
62103;BME280;48077;48.104;11.702;2022-09-01T10:20:26;95761.06;;;18.80;62.56
62103;BME280;48077;48.104;11.702;2022-09-01T10:22:51;95763.97;;;18.94;62.93
62103;BME280;48077;48.104;11.702;2022-09-01T10:25:20;95760.84;;;19.16;63.90
62103;BME280;48077;48.104;11.702;2022-09-01T10:27:47;95763.22;;;19.28;62.98
62103;BME280;48077;48.104;11.702;2022-09-01T10:30:14;95763.00;;;19.19;63.08
62103;BME280;48077;48.104;11.702;2022-09-01T10:32:48;95743.50;;;19.28;62.02
62103;BME280;48077;48.104;11.702;2022-09-01T10:35:21;95763.75;;;19.65;60.99
62103;BME280;48077;48.104;11.702;2022-09-01T10:37:48;95753.50;;;19.61;58.39
62103;BME280;48077;48.104;11.702;2022-09-01T10:40:33;95760.84;;;19.16;60.09
62103;BME280;48077;48.104;11.702;2022-09-01T10:43:21;95757.84;;;18.78;62.07
62103;BME280;48077;48.104;11.702;2022-09-01T10:45:43;95760.97;;;18.36;63.14
62103;BME280;48077;48.104;11.702;2022-09-01T10:50:42;95760.59;;;18.58;63.29
62103;BME280;48077;48.104;11.702;2022-09-01T10:53:06;95760.22;;;18.90;61.74
62103;BME280;48077;48.104;11.702;2022-09-01T10:55:39;95754.31;;;19.23;61.50
62103;BME280;48077;48.104;11.702;2022-09-01T10:58:32;95756.97;;;19.33;59.19
62103;BME280;48077;48.104;11.702;2022-09-01T11:00:57;95747.88;;;19.53;58.14
62103;BME280;48077;48.104;11.702;2022-09-01T11:05:58;95756.22;;;19.91;56.42
62103;BME280;48077;48.104;11.702;2022-09-01T11:08:40;95750.25;;;19.94;56.46
62103;BME280;48077;48.104;11.702;2022-09-01T11:11:26;95755.56;;;19.75;57.17
62103;BME280;48077;48.104;11.702;2022-09-01T11:13:53;95760.75;;;19.71;58.23
62103;BME280;48077;48.104;11.702;2022-09-01T11:18:54;95756.66;;;19.74;58.20
62103;BME280;48077;48.104;11.702;2022-09-01T11:21:27;95756.09;;;19.37;57.58
62103;BME280;48077;48.104;11.702;2022-09-01T11:26:53;95745.81;;;20.03;55.32
62103;BME280;48077;48.104;11.702;2022-09-01T11:29:52;95739.38;;;20.47;55.85
62103;BME280;48077;48.104;11.702;2022-09-01T11:32:18;95731.19;;;20.95;53.66
62103;BME280;48077;48.104;11.702;2022-09-01T11:34:44;95738.09;;;20.88;52.74
62103;BME280;48077;48.104;11.702;2022-09-01T11:37:14;95733.47;;;21.45;51.00
62103;BME280;48077;48.104;11.702;2022-09-01T11:39:45;95740.16;;;21.67;51.06
62103;BME280;48077;48.104;11.702;2022-09-01T11:42:17;95738.03;;;22.10;49.98
62103;BME280;48077;48.104;11.702;2022-09-01T11:47:34;95724.03;;;21.89;50.57
62103;BME280;48077;48.104;11.702;2022-09-01T11:50:01;95734.66;;;21.72;51.10
62103;BME280;48077;48.104;11.702;2022-09-01T11:52:31;95728.63;;;21.23;51.12
62103;BME280;48077;48.104;11.702;2022-09-01T11:54:57;95731.72;;;20.54;53.22
62103;BME280;48077;48.104;11.702;2022-09-01T11:57:35;95730.66;;;20.93;51.93
62103;BME280;48077;48.104;11.702;2022-09-01T12:00:00;95735.28;;;20.50;51.54
62103;BME280;48077;48.104;11.702;2022-09-01T12:02:32;95726.28;;;20.78;49.56
62103;BME280;48077;48.104;11.702;2022-09-01T12:04:56;95726.63;;;21.48;49.78
62103;BME280;48077;48.104;11.702;2022-09-01T12:07:40;95724.66;;;22.14;48.56
62103;BME280;48077;48.104;11.702;2022-09-01T12:12:59;95729.00;;;23.20;46.89
62103;BME280;48077;48.104;11.702;2022-09-01T12:15:24;95725.91;;;23.13;45.21
62103;BME280;48077;48.104;11.702;2022-09-01T12:17:48;95721.00;;;23.38;45.52
62103;BME280;48077;48.104;11.702;2022-09-01T12:20:25;95719.38;;;23.00;46.48
62103;BME280;48077;48.104;11.702;2022-09-01T12:22:49;95722.88;;;22.37;48.16
62103;BME280;48077;48.104;11.702;2022-09-01T12:25:23;95726.66;;;21.94;46.83
62103;BME280;48077;48.104;11.702;2022-09-01T12:27:48;95731.28;;;21.94;48.19
62103;BME280;48077;48.104;11.702;2022-09-01T12:30:11;95725.91;;;21.23;49.98
62103;BME280;48077;48.104;11.702;2022-09-01T12:32:35;95731.31;;;21.04;50.78
62103;BME280;48077;48.104;11.702;2022-09-01T12:35:14;95731.97;;;21.86;47.96
62103;BME280;48077;48.104;11.702;2022-09-01T12:37:40;95727.00;;;22.62;47.48
62103;BME280;48077;48.104;11.702;2022-09-01T12:40:03;95728.59;;;23.27;46.67
62103;BME280;48077;48.104;11.702;2022-09-01T12:42:32;95739.97;;;23.74;44.44
62103;BME280;48077;48.104;11.702;2022-09-01T12:45:01;95716.22;;;23.66;44.24
62103;BME280;48077;48.104;11.702;2022-09-01T12:50:04;95714.28;;;24.20;44.16
62103;BME280;48077;48.104;11.702;2022-09-01T12:52:29;95719.28;;;24.27;45.38
62103;BME280;48077;48.104;11.702;2022-09-01T12:57:34;95731.44;;;23.22;45.09
62103;BME280;48077;48.104;11.702;2022-09-01T13:00:12;95728.47;;;22.82;45.04
62103;BME280;48077;48.104;11.702;2022-09-01T13:02:46;95720.97;;;22.23;45.43
62103;BME280;48077;48.104;11.702;2022-09-01T13:05:35;95714.50;;;21.59;46.86
62103;BME280;48077;48.104;11.702;2022-09-01T13:08:07;95709.41;;;22.32;46.25
62103;BME280;48077;48.104;11.702;2022-09-01T13:10:43;95717.09;;;22.80;46.23
62103;BME280;48077;48.104;11.702;2022-09-01T13:13:08;95708.97;;;23.61;42.81
62103;BME280;48077;48.104;11.702;2022-09-01T13:15:34;95703.16;;;24.08;42.44
62103;BME280;48077;48.104;11.702;2022-09-01T13:17:57;95710.28;;;24.27;42.53